Time;durP1;ratioP1;P1;durP2;ratioP2;P2;SDS_P1;SDS_P2;PMS_P1;PMS_P2;Temp;Humidity;BMP_temperature;BMP_pressure;BME280_temperature;BME280_humidity;BME280_pressure;Samples;Min_cycle;Max_cycle;Signal;HPM_P1;HPM_P2
2022/10/17 00:02:21;;;;;;;9.70;7.78;;;;;;;13.23;98.42;101528.56;5049632;28;20101;-81
2022/10/17 00:04:46;;;;;;;9.95;8.02;;;;;;;13.26;98.56;101538.75;5049789;28;20017;-81
2022/10/17 00:07:11;;;;;;;10.02;9.02;;;;;;;13.15;99.27;101533.56;5043043;28;20029;-81
2022/10/17 00:09:37;;;;;;;10.13;8.15;;;;;;;13.19;99.34;101529.75;5049004;28;20070;-81
2022/10/17 00:12:02;;;;;;;13.23;8.68;;;;;;;13.12;99.67;101518.16;5045484;28;20032;-81
2022/10/17 00:14:28;;;;;;;10.38;7.57;;;;;;;13.23;99.42;101539.00;5026333;28;20041;-81
2022/10/17 00:16:53;;;;;;;11.20;7.35;;;;;;;13.16;99.30;101522.19;5042989;28;20056;-81
2022/10/17 00:19:18;;;;;;;11.07;9.52;;;;;;;13.17;99.74;101529.03;5026563;28;20059;-81
2022/10/17 00:21:43;;;;;;;9.98;8.18;;;;;;;13.22;99.84;101537.34;5026652;28;20025;-81
2022/10/17 00:24:09;;;;;;;10.50;7.97;;;;;;;13.19;99.56;101521.94;5044817;28;20120;-81
2022/10/17 00:26:34;;;;;;;11.73;9.10;;;;;;;13.23;100.00;101539.00;5022451;28;20043;-81
2022/10/17 00:29:00;;;;;;;11.50;8.18;;;;;;;13.18;100.00;101533.28;5040228;28;20091;-81
2022/10/17 00:31:25;;;;;;;11.02;9.05;;;;;;;13.21;100.00;101530.47;5002421;28;20080;-81
2022/10/17 00:33:51;;;;;;;10.98;9.55;;;;;;;13.14;100.00;101512.84;5022890;28;20021;-81
2022/10/17 00:36:22;;;;;;;11.57;8.60;;;;;;;13.19;100.00;101521.94;5006848;28;20026;-81
2022/10/17 00:38:53;;;;;;;10.45;8.90;;;;;;;13.20;100.00;101523.59;5014396;28;20370;-81
2022/10/17 00:41:21;;;;;;;10.68;9.57;;;;;;;13.10;100.00;101512.25;5017847;28;20030;-81
2022/10/17 00:44:25;;;;;;;9.80;7.50;;;;;;;13.22;100.00;101521.72;5024964;28;20040;-81
2022/10/17 00:46:50;;;;;;;12.82;9.10;;;;;;;13.18;100.00;101522.88;5024096;28;20128;-81
2022/10/17 00:49:16;;;;;;;10.13;8.30;;;;;;;13.09;100.00;101502.81;5021406;28;20108;-81
2022/10/17 00:52:03;;;;;;;9.77;8.57;;;;;;;13.18;100.00;101514.22;5006081;28;20409;-81
2022/10/17 00:54:34;;;;;;;11.57;9.70;;;;;;;13.22;100.00;101526.91;5023732;28;20556;-81
2022/10/17 00:57:00;;;;;;;12.10;10.95;;;;;;;13.12;100.00;101510.34;5025200;28;20104;-81
2022/10/17 00:59:27;;;;;;;12.05;9.82;;;;;;;13.10;100.00;101501.84;5021118;28;20026;-81
2022/10/17 01:02:00;;;;;;;10.93;9.50;;;;;;;13.24;100.00;101517.19;5018140;28;20108;-81
2022/10/17 01:04:26;;;;;;;10.57;9.43;;;;;;;13.20;100.00;101513.16;5031904;28;20544;-81
2022/10/17 01:06:51;;;;;;;10.52;8.63;;;;;;;13.24;100.00;101511.16;5025511;28;20033;-80
2022/10/17 01:09:17;;;;;;;12.40;8.57;;;;;;;13.29;100.00;101511.59;5031743;28;20037;-81
2022/10/17 01:12:14;;;;;;;11.10;9.10;;;;;;;13.18;100.00;101494.22;5027853;28;20035;-81
2022/10/17 01:15:05;;;;;;;11.90;10.80;;;;;;;13.31;100.00;101503.69;5021213;28;20037;-81
2022/10/17 01:17:59;;;;;;;12.02;9.63;;;;;;;13.28;100.00;101495.16;5004734;28;20107;-81
2022/10/17 01:20:46;;;;;;;12.38;9.45;;;;;;;13.24;100.00;101477.28;5022982;28;20037;-81
2022/10/17 01:23:30;;;;;;;12.13;9.93;;;;;;;13.31;100.00;101493.28;5017743;28;20022;-81
2022/10/17 01:26:21;;;;;;;10.95;9.80;;;;;;;13.26;100.00;101480.63;5026883;28;20041;-82
2022/10/17 01:29:29;;;;;;;11.13;8.73;;;;;;;13.37;100.00;101487.56;5002087;28;20044;-82
2022/10/17 01:32:22;;;;;;;12.75;11.45;;;;;;;13.25;100.00;101487.59;4907442;29;20478;-82
2022/10/17 01:34:53;;;;;;;10.77;8.48;;;;;;;13.34;100.00;101493.00;4918897;29;20103;-81
2022/10/17 01:37:37;;;;;;;10.02;8.70;;;;;;;13.29;100.00;101491.59;4926559;29;20049;-82
2022/10/17 01:40:07;;;;;;;12.50;9.27;;;;;;;13.29;100.00;101491.59;4928136;29;20083;-82
2022/10/17 01:42:41;;;;;;;12.45;9.45;;;;;;;13.33;100.00;101491.34;4917657;29;20074;-82
2022/10/17 01:45:19;;;;;;;12.27;10.57;;;;;;;13.31;100.00;101493.28;4928292;29;20844;-81
2022/10/17 01:47:49;;;;;;;10.35;8.60;;;;;;;13.32;100.00;101487.09;4928217;29;20095;-81
2022/10/17 01:50:24;;;;;;;11.18;9.77;;;;;;;13.32;100.00;101479.28;4926609;29;20043;-81
2022/10/17 01:52:58;;;;;;;12.45;11.15;;;;;;;13.27;100.00;101467.47;4927423;29;20067;-81
2022/10/17 01:55:29;;;;;;;12.60;8.77;;;;;;;13.26;100.00;101460.59;4927533;29;20091;-81
2022/10/17 01:58:01;;;;;;;11.02;9.70;;;;;;;13.25;100.00;101461.56;4909142;29;20067;-82
2022/10/17 02:00:29;;;;;;;12.25;11.07;;;;;;;13.33;100.00;101470.50;4927467;29;20039;-81
2022/10/17 02:03:03;;;;;;;13.77;10.07;;;;;;;13.27;100.00;101462.25;4911088;29;20051;-82
2022/10/17 02:05:35;;;;;;;12.55;11.35;;;;;;;13.29;100.00;101470.75;4927204;29;20411;-82
2022/10/17 02:08:00;;;;;;;11.98;9.98;;;;;;;13.28;100.00;101473.50;5006355;28;20139;-82
2022/10/17 02:10:46;;;;;;;13.35;11.68;;;;;;;13.34;100.00;101487.78;5027403;28;20576;-81
2022/10/17 02:13:20;;;;;;;13.50;9.95;;;;;;;13.29;100.00;101464.72;5040190;28;20032;-82
2022/10/17 02:15:56;;;;;;;11.18;9.30;;;;;;;13.37;100.00;101471.91;5025754;28;20030;-81
2022/10/17 02:18:45;;;;;;;11.10;8.43;;;;;;;13.37;100.00;101482.34;5036031;28;20036;-81
2022/10/17 02:21:15;;;;;;;;;;;;;;;13.42;100.00;101474.94;5031036;28;20055;-82
2022/10/17 02:23:52;;;;;;;13.35;9.13;;;;;;;13.35;100.00;101474.63;5025818;28;20015;-82
2022/10/17 02:26:48;;;;;;;11.10;9.18;;;;;;;13.36;100.00;101465.03;5023773;28;20029;-82
2022/10/17 02:29:21;;;;;;;10.57;8.50;;;;;;;13.29;100.00;101449.91;5013998;28;20080;-82
2022/10/17 02:32:01;;;;;;;12.73;11.50;;;;;;;13.23;100.00;101445.22;5032255;28;20029;-81
2022/10/17 02:34:41;;;;;;;12.90;9.73;;;;;;;13.36;100.00;101465.03;5044652;28;20055;-82
2022/10/17 02:37:08;;;;;;;11.32;9.38;;;;;;;13.33;100.00;101449.66;5057754;28;20056;-82
2022/10/17 02:39:35;;;;;;;13.18;10.88;;;;;;;13.38;100.00;101453.53;5052687;28;20041;-82
2022/10/17 02:42:06;;;;;;;13.65;10.27;;;;;;;13.41;100.00;101452.44;5026925;28;20021;-81
2022/10/17 02:44:32;;;;;;;12.40;9.40;;;;;;;13.45;100.00;101453.84;5038106;28;20021;-81
2022/10/17 02:47:09;;;;;;;12.88;9.18;;;;;;;13.53;100.00;101452.28;5031292;28;20487;-81
2022/10/17 02:49:39;;;;;;;12.95;10.30;;;;;;;13.56;100.00;101461.59;5050891;28;20059;-81
2022/10/17 02:52:16;;;;;;;12.70;11.32;;;;;;;13.61;100.00;101464.66;5054059;28;20025;-81
2022/10/17 02:54:51;;;;;;;13.10;11.45;;;;;;;13.61;100.00;101456.81;5046244;28;20091;-82
2022/10/17 02:57:34;;;;;;;13.68;11.25;;;;;;;13.67;100.00;101458.91;5028347;28;20469;-81
2022/10/17 03:00:02;;;;;;;13.10;10.52;;;;;;;13.62;100.00;101449.84;5036087;28;20075;-81
2022/10/17 03:02:37;;;;;;;11.45;9.95;;;;;;;13.69;100.00;101450.97;5050810;28;20373;-82
2022/10/17 03:05:02;;;;;;;13.45;10.75;;;;;;;13.80;100.00;101459.53;5045609;28;20056;-81
2022/10/17 03:07:28;;;;;;;11.60;9.07;;;;;;;13.76;100.00;101452.94;5027738;28;20095;-81
2022/10/17 03:09:53;;;;;;;13.35;9.85;;;;;;;13.86;100.00;101467.78;5043582;28;20034;-81
2022/10/17 03:12:18;;;;;;;13.95;12.55;;;;;;;13.82;100.00;101452.41;5045794;28;20035;-81
2022/10/17 03:14:43;;;;;;;14.30;10.63;;;;;;;13.78;100.00;101443.19;5044194;28;20116;-81
2022/10/17 03:17:09;;;;;;;13.95;12.57;;;;;;;13.86;100.00;101452.13;5050212;28;20047;-82
2022/10/17 03:19:34;;;;;;;13.35;10.73;;;;;;;13.90;100.00;101456.97;5044243;28;20013;-81
2022/10/17 03:21:59;;;;;;;14.95;10.43;;;;;;;13.96;100.00;101468.66;5039454;28;20029;-81
2022/10/17 03:24:25;;;;;;;12.32;10.77;;;;;;;14.03;100.00;101469.75;5053007;28;20440;-81
2022/10/17 03:26:50;;;;;;;12.10;9.40;;;;;;;14.02;100.00;101458.50;5059469;28;20469;-81
2022/10/17 03:29:15;;;;;;;12.43;11.27;;;;;;;14.02;100.00;101452.47;5033237;28;20039;-82
2022/10/17 03:31:40;;;;;;;12.10;10.57;;;;;;;14.09;100.00;101456.19;5053088;28;20067;-81
2022/10/17 03:34:06;;;;;;;13.13;11.77;;;;;;;14.09;100.00;101443.16;5033689;28;20024;-81
2022/10/17 03:36:31;;;;;;;11.88;9.73;;;;;;;14.18;100.00;101458.03;5048923;28;20083;-81
2022/10/17 03:38:56;;;;;;;13.77;12.38;;;;;;;14.21;100.00;101457.75;5047056;28;20112;-81
2022/10/17 03:41:22;;;;;;;12.82;9.95;;;;;;;14.16;100.00;101446.88;5045625;28;20059;-81
2022/10/17 03:43:47;;;;;;;13.60;10.32;;;;;;;14.18;100.00;101455.41;5046276;28;20025;-81
2022/10/17 03:46:12;;;;;;;13.05;11.43;;;;;;;14.24;100.00;101465.31;5030248;28;20033;-81
2022/10/17 03:48:38;;;;;;;12.57;11.27;;;;;;;14.21;100.00;101456.91;5041939;28;20044;-81
2022/10/17 03:51:06;;;;;;;15.00;11.40;;;;;;;14.27;100.00;101464.22;5051358;28;20570;-81
2022/10/17 03:53:32;;;;;;;11.38;8.77;;;;;;;14.31;100.00;101469.03;5046353;28;20044;-82
2022/10/17 03:56:15;;;;;;;10.93;8.55;;;;;;;14.31;100.00;101466.44;5052740;28;20029;-81
2022/10/17 03:58:41;;;;;;;12.65;10.05;;;;;;;14.26;100.00;101460.78;5050176;28;20024;-81
2022/10/17 04:01:08;;;;;;;12.88;11.52;;;;;;;14.31;100.00;101463.81;5048316;28;20354;-81
2022/10/17 04:03:34;;;;;;;11.95;10.82;;;;;;;14.22;100.00;101448.13;5029096;28;20024;-81
2022/10/17 04:06:00;;;;;;;12.27;11.07;;;;;;;14.31;100.00;101466.44;5057744;28;20055;-82
2022/10/17 04:08:26;;;;;;;12.25;10.93;;;;;;;14.30;100.00;101475.22;5029957;28;20021;-81
2022/10/17 04:10:52;;;;;;;14.68;11.90;;;;;;;14.28;100.00;101471.94;5058737;28;20039;-82
2022/10/17 04:13:17;;;;;;;13.02;11.00;;;;;;;14.24;100.00;101473.13;5027100;28;20025;-82
2022/10/17 04:15:56;;;;;;;13.07;11.77;;;;;;;14.28;100.00;101479.75;5024703;28;20041;-81
2022/10/17 04:18:22;;;;;;;12.85;9.30;;;;;;;14.36;100.00;101497.34;5030312;28;20029;-82
2022/10/17 04:20:47;;;;;;;12.23;10.15;;;;;;;14.28;100.00;101484.97;5044012;28;20040;-82
2022/10/17 04:23:12;;;;;;;12.80;11.43;;;;;;;14.35;100.00;101501.75;5044999;28;20024;-81
2022/10/17 04:25:38;;;;;;;12.05;9.90;;;;;;;14.29;100.00;101486.63;5046550;28;20028;-82
2022/10/17 04:28:03;;;;;;;12.30;10.65;;;;;;;14.41;100.00;101483.91;5048942;28;20483;-81
2022/10/17 04:30:28;;;;;;;12.50;11.30;;;;;;;14.31;100.00;101469.03;5043305;28;20064;-81
2022/10/17 04:32:54;;;;;;;11.52;10.35;;;;;;;14.38;100.00;101484.16;5045368;28;20029;-81
2022/10/17 04:35:19;;;;;;;12.07;10.43;;;;;;;14.29;100.00;101478.78;5049110;28;20059;-82
2022/10/17 04:37:45;;;;;;;13.90;10.20;;;;;;;14.40;100.00;101503.13;5051416;28;20032;-81
2022/10/17 04:40:10;;;;;;;14.73;11.43;;;;;;;14.39;100.00;101509.28;5026501;28;20075;-82
2022/10/17 04:42:35;;;;;;;14.20;11.55;;;;;;;14.29;100.00;101489.22;5044800;28;20528;-81
2022/10/17 04:45:01;;;;;;;12.68;10.98;;;;;;;14.33;100.00;101506.25;5051143;28;20037;-81
2022/10/17 04:47:26;;;;;;;12.60;10.48;;;;;;;14.33;100.00;101506.25;5038207;28;20021;-82
2022/10/17 04:49:51;;;;;;;13.60;11.52;;;;;;;14.40;100.00;101524.84;5045029;28;20033;-81
2022/10/17 04:52:17;;;;;;;12.90;11.00;;;;;;;14.30;100.00;101511.75;5056693;28;20025;-81
2022/10/17 04:54:42;;;;;;;12.27;10.20;;;;;;;14.39;100.00;101533.59;5014688;28;20359;-81
2022/10/17 04:57:07;;;;;;;11.85;10.48;;;;;;;14.39;100.00;101532.78;5046009;28;20480;-81
2022/10/17 04:59:33;;;;;;;12.55;11.27;;;;;;;14.35;100.00;101533.06;5047478;28;20134;-81
2022/10/17 05:01:58;;;;;;;13.00;10.40;;;;;;;14.30;100.00;101519.56;5049798;28;20024;-81
2022/10/17 05:04:24;;;;;;;12.48;11.20;;;;;;;14.31;100.00;101528.22;5048153;28;20021;-81
2022/10/17 05:06:49;;;;;;;13.02;11.52;;;;;;;14.35;100.00;101538.28;5049545;28;20051;-81
2022/10/17 05:09:15;;;;;;;13.75;10.60;;;;;;;14.30;100.00;101530.00;5047663;28;20540;-81
2022/10/17 05:11:41;;;;;;;12.95;11.45;;;;;;;14.31;100.00;101525.63;5045347;28;20040;-81
2022/10/17 05:14:06;;;;;;;13.27;9.18;;;;;;;14.35;100.00;101538.28;5052261;28;20224;-81
2022/10/17 05:16:31;;;;;;;13.93;11.05;;;;;;;14.22;100.00;101516.81;5034575;28;20031;-81
2022/10/17 05:18:57;;;;;;;12.90;11.23;;;;;;;14.25;100.00;101511.31;5044960;28;20029;-81
2022/10/17 05:21:25;;;;;;;11.70;10.43;;;;;;;14.31;100.00;101523.00;5044574;28;20104;-81
2022/10/17 05:23:51;;;;;;;10.70;8.80;;;;;;;14.35;100.00;101517.41;5026721;28;20029;-81
2022/10/17 05:26:17;;;;;;;13.55;9.35;;;;;;;14.34;100.00;101520.97;5051032;28;20037;-81
2022/10/17 05:28:42;;;;;;;13.02;9.90;;;;;;;14.31;100.00;101513.41;5051091;28;20590;-81
2022/10/17 05:31:09;;;;;;;12.68;11.38;;;;;;;14.29;100.00;101515.31;5026775;28;20132;-82
2022/10/17 05:33:35;;;;;;;11.90;10.60;;;;;;;14.34;100.00;101536.63;5044954;28;20039;-81
2022/10/17 05:36:02;;;;;;;13.23;11.07;;;;;;;14.37;100.00;101540.75;5049914;28;20033;-81
2022/10/17 05:38:27;;;;;;;12.30;11.02;;;;;;;14.30;100.00;101535.22;5057124;28;20032;-81
2022/10/17 05:41:11;;;;;;;12.00;10.65;;;;;;;14.33;100.00;101536.75;5044631;28;20033;-81
2022/10/17 05:43:36;;;;;;;11.90;10.70;;;;;;;14.29;100.00;101533.59;5025755;28;20517;-81
2022/10/17 05:46:06;;;;;;;12.90;10.23;;;;;;;14.40;100.00;101539.66;5045556;28;20057;-81
2022/10/17 05:48:31;;;;;;;12.60;11.30;;;;;;;14.29;100.00;101533.59;5053598;28;20467;-81
2022/10/17 05:50:58;;;;;;;12.27;9.80;;;;;;;14.32;100.00;101530.69;5034675;28;20160;-81
2022/10/17 05:53:24;;;;;;;13.15;10.48;;;;;;;14.35;100.00;101542.66;5028142;28;20053;-82
2022/10/17 05:55:59;;;;;;;11.73;10.50;;;;;;;14.33;100.00;101540.16;5047804;28;20111;-84
2022/10/17 05:58:25;;;;;;;13.15;11.15;;;;;;;14.38;100.00;101546.78;5032290;28;20024;-84
2022/10/17 06:00:50;;;;;;;12.90;10.80;;;;;;;14.37;100.00;101550.34;5030893;28;20083;-83
2022/10/17 06:03:16;;;;;;;11.73;10.48;;;;;;;14.35;100.00;101538.28;5033163;28;20032;-83
2022/10/17 06:05:41;;;;;;;11.35;10.18;;;;;;;14.41;100.00;101543.94;5041759;28;20300;-83
2022/10/17 06:08:06;;;;;;;11.38;9.65;;;;;;;14.45;100.00;101547.91;5046975;28;20029;-84
2022/10/17 06:10:32;;;;;;;11.27;10.07;;;;;;;14.45;100.00;101558.34;5050312;28;20029;-83
2022/10/17 06:12:57;;;;;;;10.85;9.20;;;;;;;14.45;100.00;101553.13;5043912;28;20498;-83
2022/10/17 06:15:23;;;;;;;11.93;10.65;;;;;;;14.39;100.00;101543.22;5050232;28;20532;-84
2022/10/17 06:17:48;;;;;;;16.17;10.38;;;;;;;14.36;100.00;101549.53;5046049;28;20036;-83
2022/10/17 06:20:13;;;;;;;12.55;10.48;;;;;;;14.36;100.00;101544.31;5045978;28;20048;-83
2022/10/17 06:22:38;;;;;;;11.80;10.55;;;;;;;14.31;100.00;101541.28;5047119;28;20021;-84
2022/10/17 06:25:04;;;;;;;11.60;10.43;;;;;;;14.46;100.00;101566.06;5028770;28;20028;-83
2022/10/17 06:27:30;;;;;;;11.98;10.48;;;;;;;14.37;100.00;101550.34;5038563;28;20032;-84
2022/10/17 06:29:55;;;;;;;11.15;9.77;;;;;;;14.43;100.00;101555.03;5025818;28;20053;-84
2022/10/17 06:32:20;;;;;;;12.25;10.73;;;;;;;14.46;100.00;101560.03;5021539;28;20033;-83
2022/10/17 06:34:46;;;;;;;12.00;10.65;;;;;;;14.50;100.00;101562.25;5025920;28;20021;-84
2022/10/17 06:37:11;;;;;;;12.50;9.13;;;;;;;14.51;100.00;101568.31;5021947;28;20032;-84
2022/10/17 06:39:36;;;;;;;11.52;10.23;;;;;;;14.47;100.00;101559.91;5032808;28;20048;-84
2022/10/17 06:42:03;;;;;;;11.70;10.30;;;;;;;14.57;100.00;101557.34;5015065;28;20533;-84
2022/10/17 06:44:30;;;;;;;12.82;10.23;;;;;;;14.58;100.00;101567.66;5013154;28;20032;-84
2022/10/17 06:46:59;;;;;;;11.30;9.82;;;;;;;14.59;100.00;101565.84;5030041;28;20044;-84
2022/10/17 06:49:26;;;;;;;12.23;10.25;;;;;;;14.62;100.00;101576.00;5023721;28;20424;-84
2022/10/17 06:51:51;;;;;;;11.77;10.57;;;;;;;14.60;100.00;101585.78;5029203;28;20691;-84
2022/10/17 06:54:17;;;;;;;10.98;8.82;;;;;;;14.58;100.00;101575.47;5026932;28;20037;-85
2022/10/17 06:56:42;;;;;;;13.73;10.23;;;;;;;14.63;100.00;101572.47;5026227;28;20104;-84
2022/10/17 06:59:09;;;;;;;13.75;10.00;;;;;;;14.61;100.00;101584.81;5026437;28;20033;-83
2022/10/17 07:01:35;;;;;;;12.65;9.68;;;;;;;14.55;100.00;101564.47;5031777;28;20025;-84
2022/10/17 07:04:00;;;;;;;13.88;10.07;;;;;;;14.68;100.00;101601.63;5031953;28;20452;-84
2022/10/17 07:06:26;;;;;;;12.45;10.18;;;;;;;14.69;100.00;101603.28;5010356;28;20061;-83
2022/10/17 07:08:51;;;;;;;12.23;10.05;;;;;;;14.74;100.00;101605.50;5009305;28;20578;-84
2022/10/17 07:11:19;;;;;;;12.82;10.50;;;;;;;14.68;100.00;101599.00;5024150;28;20037;-84
2022/10/17 07:13:45;;;;;;;15.48;9.95;;;;;;;14.76;100.00;101607.00;5019365;28;20030;-84
2022/10/17 07:16:11;;;;;;;11.35;10.23;;;;;;;14.80;100.00;101611.00;5021575;28;20036;-84
2022/10/17 07:18:37;;;;;;;11.13;9.75;;;;;;;14.78;100.00;101601.63;5026414;28;20072;-83
2022/10/17 07:21:03;;;;;;;11.10;9.98;;;;;;;14.86;100.00;101620.91;5036342;28;20060;-83
2022/10/17 07:23:29;;;;;;;12.73;10.90;;;;;;;14.88;100.00;101612.94;5041253;28;20032;-84
2022/10/17 07:26:00;;;;;;;11.60;10.40;;;;;;;14.84;100.00;101607.13;5028628;28;20033;-83
2022/10/17 07:28:26;;;;;;;12.15;10.75;;;;;;;14.83;100.00;101610.72;5035929;28;20077;-84
2022/10/17 07:30:52;;;;;;;11.70;10.50;;;;;;;14.92;100.00;101614.31;5011854;28;20052;-84
2022/10/17 07:33:17;;;;;;;11.35;10.13;;;;;;;14.91;100.00;101601.38;5015385;28;20025;-84
2022/10/17 07:35:42;;;;;;;12.18;9.88;;;;;;;14.86;100.00;101594.78;5020049;28;20029;-84
2022/10/17 07:38:08;;;;;;;13.70;10.98;;;;;;;14.86;100.00;101594.78;5033668;28;20040;-83
2022/10/17 07:40:33;;;;;;;11.60;10.43;;;;;;;14.99;100.00;101619.84;5032437;28;20039;-84
2022/10/17 07:42:59;;;;;;;14.32;9.50;;;;;;;14.99;100.00;101630.28;5031322;28;20044;-84
2022/10/17 07:45:26;;;;;;;13.25;10.95;;;;;;;15.03;100.00;101652.56;5029223;28;20495;-83
2022/10/17 07:47:56;;;;;;;11.90;10.70;;;;;;;15.02;100.00;101661.34;5007944;28;20655;-83
2022/10/17 07:50:21;;;;;;;12.30;10.55;;;;;;;15.02;100.00;101661.34;5035837;28;20021;-84
2022/10/17 07:52:46;;;;;;;12.57;11.05;;;;;;;15.03;100.00;101678.69;5007529;28;20083;-83
2022/10/17 07:55:11;;;;;;;13.40;11.00;;;;;;;15.01;100.00;101696.28;5024342;28;20025;-84
2022/10/17 07:57:39;;;;;;;14.15;11.55;;;;;;;15.11;100.00;101738.94;5030430;28;20056;-84
2022/10/17 08:00:05;;;;;;;13.77;12.25;;;;;;;15.14;100.00;101764.81;5027861;28;21496;-84
2022/10/17 08:02:31;;;;;;;13.95;12.50;;;;;;;15.06;100.00;101752.41;5030848;28;20044;-84
2022/10/17 08:04:56;;;;;;;14.60;12.85;;;;;;;15.16;100.00;101751.63;5023765;28;20022;-84
2022/10/17 08:07:21;;;;;;;14.68;12.48;;;;;;;15.05;100.00;101763.81;5029713;28;20032;-84
2022/10/17 08:09:47;;;;;;;13.00;10.82;;;;;;;15.07;100.00;101745.38;5022018;28;20029;-83
2022/10/17 08:12:15;;;;;;;14.52;10.43;;;;;;;15.18;100.00;101755.75;5011485;28;20435;-84
2022/10/17 08:14:42;;;;;;;14.43;11.02;;;;;;;15.14;100.00;101747.34;5005873;28;20061;-84
2022/10/17 08:17:07;;;;;;;11.35;10.05;;;;;;;15.07;100.00;101732.31;4996007;28;20489;-83
2022/10/17 08:19:32;;;;;;;16.02;10.68;;;;;;;15.15;100.00;101761.25;5024691;28;20033;-84
2022/10/17 08:21:58;;;;;;;11.25;10.02;;;;;;;15.14;100.00;101743.94;5007244;28;20028;-83
2022/10/17 08:24:24;;;;;;;13.65;9.02;;;;;;;15.19;100.00;101736.47;5022821;28;20057;-84
2022/10/17 08:26:50;;;;;;;11.75;8.98;;;;;;;15.11;100.00;101718.03;5026889;28;20029;-83
2022/10/17 08:29:15;;;;;;;12.63;9.90;;;;;;;15.09;100.00;101726.03;5024079;28;20079;-83
2022/10/17 08:31:41;;;;;;;11.90;10.30;;;;;;;15.10;100.00;101737.28;5018307;28;20111;-83
2022/10/17 08:34:07;;;;;;;14.00;10.55;;;;;;;15.16;100.00;101768.13;5049281;28;20025;-83
2022/10/17 08:36:32;;;;;;;14.38;11.15;;;;;;;15.06;100.00;101764.63;5032036;28;20424;-83
2022/10/17 08:38:58;;;;;;;11.60;9.95;;;;;;;15.10;100.00;101784.34;5053643;28;20033;-83
2022/10/17 08:41:48;;;;;;;13.75;10.57;;;;;;;15.12;100.00;101829.44;5049782;28;20024;-83
2022/10/17 08:44:45;;;;;;;12.30;10.55;;;;;;;15.14;100.00;101870.19;5018151;28;20037;-84
2022/10/17 08:47:22;;;;;;;13.15;9.75;;;;;;;15.12;100.00;101824.22;4996840;28;20040;-84
2022/10/17 08:49:51;;;;;;;12.57;10.25;;;;;;;15.11;100.00;101827.78;5034524;28;20424;-84
2022/10/17 08:52:39;;;;;;;12.15;10.90;;;;;;;15.13;100.00;101811.00;5055986;28;20058;-85
2022/10/17 08:55:32;;;;;;;12.32;10.57;;;;;;;15.09;100.00;101811.41;5051542;28;20132;-84
2022/10/17 08:57:58;;;;;;;13.07;10.38;;;;;;;15.11;100.00;101814.72;5049147;28;20112;-83
2022/10/17 09:00:25;;;;;;;12.02;10.73;;;;;;;15.05;100.00;101792.56;5046915;28;20416;-83
2022/10/17 09:02:56;;;;;;;11.93;10.57;;;;;;;15.16;100.00;101777.75;5043913;28;20056;-83
2022/10/17 09:05:37;;;;;;;11.50;10.30;;;;;;;15.09;100.00;101774.84;5044076;28;20029;-83
2022/10/17 09:08:23;;;;;;;11.88;9.85;;;;;;;15.15;100.00;101792.59;5026495;28;20449;-83
2022/10/17 09:11:24;;;;;;;11.40;10.07;;;;;;;15.14;100.00;101790.97;5044688;28;20104;-83
2022/10/17 09:13:55;;;;;;;12.18;9.90;;;;;;;15.14;100.00;101801.41;5000282;28;20037;-83
2022/10/17 09:16:23;;;;;;;12.27;10.15;;;;;;;15.17;100.00;101803.75;5050551;28;20128;-84
2022/10/17 09:19:06;;;;;;;10.85;9.48;;;;;;;15.16;100.00;101794.25;5032532;28;20063;-83
2022/10/17 09:22:00;;;;;;;12.15;9.80;;;;;;;15.20;100.00;101811.34;5045885;28;20048;-84
2022/10/17 09:24:37;;;;;;;12.40;9.65;;;;;;;15.15;100.00;101787.38;4947213;28;20039;-84
2022/10/17 09:27:04;;;;;;;13.35;9.93;;;;;;;15.14;100.00;101796.19;4949626;28;20089;-83
2022/10/17 09:29:30;;;;;;;11.00;8.90;;;;;;;15.21;100.00;101831.28;4953550;28;20070;-84
2022/10/17 09:32:12;;;;;;;11.93;9.52;;;;;;;15.19;100.00;101851.47;4945114;28;20478;-84
2022/10/17 09:34:38;;;;;;;11.90;9.10;;;;;;;15.17;100.00;101849.97;4945598;28;20137;-84
2022/10/17 09:37:12;;;;;;;12.55;9.48;;;;;;;15.17;100.00;101863.84;4935602;29;20623;-83
2022/10/17 09:39:37;;;;;;;11.15;9.43;;;;;;;15.16;100.00;101838.69;4944411;28;20038;-83
2022/10/17 09:42:03;;;;;;;10.65;9.40;;;;;;;15.18;100.00;101802.78;4961508;28;20031;-83
2022/10/17 09:44:40;;;;;;;10.70;9.50;;;;;;;15.20;100.00;101811.34;4954564;28;20590;-83
2022/10/17 09:47:21;;;;;;;11.57;10.18;;;;;;;15.25;100.00;101803.91;4945135;28;20043;-83
2022/10/17 09:49:48;;;;;;;11.15;10.05;;;;;;;15.20;100.00;101774.75;4943593;28;20031;-83
2022/10/17 09:52:18;;;;;;;12.50;8.90;;;;;;;15.23;100.00;101784.09;4943757;28;20065;-83
2022/10/17 09:54:47;;;;;;;10.20;8.70;;;;;;;15.24;100.00;101791.78;4954223;28;20043;-82
2022/10/17 09:57:14;;;;;;;10.07;8.98;;;;;;;15.24;100.00;101804.88;4952051;28;20532;-82
2022/10/17 09:59:45;;;;;;;11.23;9.25;;;;;;;15.25;100.00;101809.13;4941549;28;20509;-82
2022/10/17 10:02:11;;;;;;;10.82;9.07;;;;;;;15.28;100.00;101813.28;5029892;28;20048;-82
2022/10/17 10:04:52;;;;;;;10.07;8.95;;;;;;;15.21;100.00;101817.38;5052370;28;20017;-82
2022/10/17 10:07:19;;;;;;;11.05;8.48;;;;;;;15.21;100.00;101839.13;5028392;28;20037;-82
2022/10/17 10:09:46;;;;;;;10.57;8.82;;;;;;;15.28;100.00;101855.09;5041028;28;20051;-82
2022/10/17 10:12:28;;;;;;;9.38;8.15;;;;;;;15.20;100.00;101832.25;5048483;28;20124;-82
2022/10/17 10:14:54;;;;;;;10.43;8.60;;;;;;;15.26;100.00;101841.34;5016401;28;20033;-82
2022/10/17 10:17:40;;;;;;;10.13;8.45;;;;;;;15.28;100.00;101829.78;5025376;28;20029;-82
2022/10/17 10:20:26;;;;;;;9.75;8.65;;;;;;;15.25;100.00;101829.22;5044006;28;20033;-82
2022/10/17 10:23:20;;;;;;;10.63;9.13;;;;;;;15.29;100.00;101836.66;5045270;28;20029;-83
2022/10/17 10:25:55;;;;;;;11.40;9.50;;;;;;;15.29;100.00;101841.91;5041274;28;20086;-82
2022/10/17 10:28:26;;;;;;;10.43;8.98;;;;;;;15.31;100.00;101844.38;5055881;28;20021;-83
2022/10/17 10:30:54;;;;;;;10.18;9.15;;;;;;;15.27;100.00;101827.31;5049911;28;20134;-82
2022/10/17 10:33:22;;;;;;;11.48;9.57;;;;;;;15.27;100.00;101846.44;5047646;28;20029;-82
2022/10/17 10:36:00;;;;;;;12.00;8.95;;;;;;;15.31;100.00;101850.47;5059445;28;20043;-82
2022/10/17 10:38:26;;;;;;;11.35;9.35;;;;;;;15.32;100.00;101862.56;5055118;28;20029;-83
2022/10/17 10:40:55;;;;;;;11.38;9.98;;;;;;;15.30;100.00;101861.84;5036853;28;20071;-85
2022/10/17 10:43:31;;;;;;;10.80;9.65;;;;;;;15.32;100.00;101872.19;5051642;28;20674;-82
2022/10/17 10:45:57;;;;;;;11.50;10.27;;;;;;;15.31;100.00;101889.66;5047473;28;20076;-82
2022/10/17 10:48:29;;;;;;;13.40;10.75;;;;;;;15.33;100.00;101895.56;5046294;28;20025;-82
2022/10/17 10:51:13;;;;;;;11.70;10.30;;;;;;;15.43;100.00;101918.34;5049095;28;20025;-82
2022/10/17 10:53:48;;;;;;;12.63;10.55;;;;;;;15.39;100.00;101915.97;5020346;28;20025;-82
2022/10/17 10:56:17;;;;;;;11.80;10.60;;;;;;;15.39;100.00;101915.97;5052691;28;20090;-82
2022/10/17 10:59:07;;;;;;;12.60;11.25;;;;;;;15.46;100.00;101936.38;5051827;28;20029;-82
2022/10/17 11:01:55;;;;;;;11.75;10.38;;;;;;;15.45;100.00;101947.78;5045183;28;20029;-82
2022/10/17 11:04:39;;;;;;;13.23;11.48;;;;;;;15.39;100.00;101944.72;5039006;28;20098;-82
2022/10/17 11:07:30;;;;;;;14.15;11.85;;;;;;;15.45;100.00;101950.41;5050541;28;20035;-81
2022/10/17 11:10:04;;;;;;;12.98;11.57;;;;;;;15.35;100.00;101937.25;5054336;28;20072;-82
2022/10/17 11:12:35;;;;;;;12.90;11.63;;;;;;;15.36;100.00;101942.34;5023326;28;20091;-82
2022/10/17 11:15:24;;;;;;;13.18;11.88;;;;;;;15.45;100.00;101956.44;5055134;28;20039;-82
2022/10/17 11:18:11;;;;;;;12.73;11.43;;;;;;;15.43;100.00;101955.75;5047982;28;20453;-81
2022/10/17 11:20:45;;;;;;;12.88;11.68;;;;;;;15.47;100.00;101974.63;5052091;28;20081;-81